sensor_id;sensor_type;location;lat;lon;timestamp;P1;durP1;ratioP1;P2;durP2;ratioP2
6626;SDS011;3349;49.830;8.748;2023-08-06T00:00:58;3.80;;;3.38;;
6626;SDS011;3349;49.830;8.748;2023-08-06T00:03:25;5.47;;;3.95;;
6626;SDS011;3349;49.830;8.748;2023-08-06T00:05:52;5.95;;;4.05;;
6626;SDS011;3349;49.830;8.748;2023-08-06T00:08:20;5.68;;;4.13;;
6626;SDS011;3349;49.830;8.748;2023-08-06T00:10:47;4.30;;;3.90;;
6626;SDS011;3349;49.830;8.748;2023-08-06T00:13:14;4.18;;;3.85;;
6626;SDS011;3349;49.830;8.748;2023-08-06T00:15:40;4.13;;;3.72;;
6626;SDS011;3349;49.830;8.748;2023-08-06T00:18:07;4.70;;;4.22;;
6626;SDS011;3349;49.830;8.748;2023-08-06T00:20:34;4.57;;;3.72;;
6626;SDS011;3349;49.830;8.748;2023-08-06T00:23:00;6.03;;;4.40;;
6626;SDS011;3349;49.830;8.748;2023-08-06T00:25:28;8.30;;;4.18;;
6626;SDS011;3349;49.830;8.748;2023-08-06T00:27:55;4.40;;;4.00;;
6626;SDS011;3349;49.830;8.748;2023-08-06T00:30:22;7.18;;;4.03;;
6626;SDS011;3349;49.830;8.748;2023-08-06T00:32:49;4.55;;;3.95;;
6626;SDS011;3349;49.830;8.748;2023-08-06T00:35:15;4.88;;;4.20;;
6626;SDS011;3349;49.830;8.748;2023-08-06T00:37:42;5.43;;;4.50;;
6626;SDS011;3349;49.830;8.748;2023-08-06T00:40:09;4.45;;;4.05;;
6626;SDS011;3349;49.830;8.748;2023-08-06T00:42:37;6.65;;;4.05;;
6626;SDS011;3349;49.830;8.748;2023-08-06T00:45:04;5.78;;;3.85;;
6626;SDS011;3349;49.830;8.748;2023-08-06T00:47:31;6.35;;;4.15;;
6626;SDS011;3349;49.830;8.748;2023-08-06T00:49:58;6.00;;;4.20;;
6626;SDS011;3349;49.830;8.748;2023-08-06T00:52:24;5.38;;;4.32;;
6626;SDS011;3349;49.830;8.748;2023-08-06T00:54:51;5.00;;;4.43;;
6626;SDS011;3349;49.830;8.748;2023-08-06T00:57:18;4.90;;;4.13;;
6626;SDS011;3349;49.830;8.748;2023-08-06T00:59:47;6.40;;;4.05;;
6626;SDS011;3349;49.830;8.748;2023-08-06T01:02:14;9.15;;;4.28;;
6626;SDS011;3349;49.830;8.748;2023-08-06T01:04:40;4.57;;;3.58;;
6626;SDS011;3349;49.830;8.748;2023-08-06T01:07:09;7.43;;;3.80;;
6626;SDS011;3349;49.830;8.748;2023-08-06T01:09:50;4.35;;;3.95;;
6626;SDS011;3349;49.830;8.748;2023-08-06T01:12:25;7.78;;;3.83;;
6626;SDS011;3349;49.830;8.748;2023-08-06T01:15:02;5.00;;;3.53;;
6626;SDS011;3349;49.830;8.748;2023-08-06T01:17:34;7.72;;;3.53;;
6626;SDS011;3349;49.830;8.748;2023-08-06T01:20:02;6.03;;;3.70;;
6626;SDS011;3349;49.830;8.748;2023-08-06T01:22:30;5.60;;;3.78;;
6626;SDS011;3349;49.830;8.748;2023-08-06T01:24:57;3.78;;;3.22;;
6626;SDS011;3349;49.830;8.748;2023-08-06T01:27:26;5.15;;;3.42;;
6626;SDS011;3349;49.830;8.748;2023-08-06T01:30:01;7.15;;;3.67;;
6626;SDS011;3349;49.830;8.748;2023-08-06T01:32:31;5.72;;;4.05;;
6626;SDS011;3349;49.830;8.748;2023-08-06T01:35:00;8.25;;;3.55;;
6626;SDS011;3349;49.830;8.748;2023-08-06T01:37:28;4.45;;;3.20;;
6626;SDS011;3349;49.830;8.748;2023-08-06T01:39:57;5.43;;;3.33;;
6626;SDS011;3349;49.830;8.748;2023-08-06T01:42:24;6.30;;;3.47;;
6626;SDS011;3349;49.830;8.748;2023-08-06T01:44:50;4.32;;;3.00;;
6626;SDS011;3349;49.830;8.748;2023-08-06T01:47:17;4.88;;;3.40;;
6626;SDS011;3349;49.830;8.748;2023-08-06T01:49:44;4.28;;;3.08;;
6626;SDS011;3349;49.830;8.748;2023-08-06T01:52:10;3.75;;;2.90;;
6626;SDS011;3349;49.830;8.748;2023-08-06T01:54:38;7.10;;;3.25;;
6626;SDS011;3349;49.830;8.748;2023-08-06T01:57:05;3.25;;;2.95;;
6626;SDS011;3349;49.830;8.748;2023-08-06T01:59:32;3.65;;;3.08;;
6626;SDS011;3349;49.830;8.748;2023-08-06T02:01:59;3.28;;;2.72;;
6626;SDS011;3349;49.830;8.748;2023-08-06T02:04:25;3.83;;;3.08;;
6626;SDS011;3349;49.830;8.748;2023-08-06T02:06:52;3.28;;;2.80;;
6626;SDS011;3349;49.830;8.748;2023-08-06T02:09:19;6.88;;;2.90;;
6626;SDS011;3349;49.830;8.748;2023-08-06T02:11:47;4.25;;;3.47;;
6626;SDS011;3349;49.830;8.748;2023-08-06T02:14:13;5.97;;;3.20;;
6626;SDS011;3349;49.830;8.748;2023-08-06T02:16:40;4.40;;;2.83;;
6626;SDS011;3349;49.830;8.748;2023-08-06T02:19:06;3.03;;;2.50;;
6626;SDS011;3349;49.830;8.748;2023-08-06T02:21:33;4.13;;;2.60;;
6626;SDS011;3349;49.830;8.748;2023-08-06T02:24:00;5.47;;;2.85;;
6626;SDS011;3349;49.830;8.748;2023-08-06T02:26:27;4.60;;;2.83;;
6626;SDS011;3349;49.830;8.748;2023-08-06T02:28:55;3.65;;;2.60;;
6626;SDS011;3349;49.830;8.748;2023-08-06T02:31:22;4.70;;;2.90;;
6626;SDS011;3349;49.830;8.748;2023-08-06T02:33:49;4.03;;;2.60;;
6626;SDS011;3349;49.830;8.748;2023-08-06T02:36:15;4.13;;;2.70;;
6626;SDS011;3349;49.830;8.748;2023-08-06T02:38:42;3.90;;;3.00;;
6626;SDS011;3349;49.830;8.748;2023-08-06T02:41:09;6.15;;;3.15;;
6626;SDS011;3349;49.830;8.748;2023-08-06T02:43:35;3.80;;;2.72;;
6626;SDS011;3349;49.830;8.748;2023-08-06T02:46:03;4.20;;;2.92;;
6626;SDS011;3349;49.830;8.748;2023-08-06T02:48:30;3.08;;;2.70;;
6626;SDS011;3349;49.830;8.748;2023-08-06T02:50:57;6.30;;;3.00;;
6626;SDS011;3349;49.830;8.748;2023-08-06T02:53:25;6.07;;;2.53;;
6626;SDS011;3349;49.830;8.748;2023-08-06T02:55:52;3.95;;;2.65;;
6626;SDS011;3349;49.830;8.748;2023-08-06T02:58:19;3.95;;;2.50;;
6626;SDS011;3349;49.830;8.748;2023-08-06T03:00:58;6.38;;;3.08;;
6626;SDS011;3349;49.830;8.748;2023-08-06T03:03:27;4.47;;;3.10;;
6626;SDS011;3349;49.830;8.748;2023-08-06T03:05:54;3.72;;;2.42;;
6626;SDS011;3349;49.830;8.748;2023-08-06T03:08:20;3.17;;;2.45;;
6626;SDS011;3349;49.830;8.748;2023-08-06T03:10:48;4.68;;;2.78;;
6626;SDS011;3349;49.830;8.748;2023-08-06T03:13:14;3.53;;;2.92;;
6626;SDS011;3349;49.830;8.748;2023-08-06T03:15:41;4.25;;;3.00;;
6626;SDS011;3349;49.830;8.748;2023-08-06T03:18:08;6.20;;;2.67;;
6626;SDS011;3349;49.830;8.748;2023-08-06T03:20:36;6.18;;;3.40;;
6626;SDS011;3349;49.830;8.748;2023-08-06T03:23:03;4.63;;;2.90;;
6626;SDS011;3349;49.830;8.748;2023-08-06T03:25:30;3.65;;;2.70;;
6626;SDS011;3349;49.830;8.748;2023-08-06T03:27:56;5.28;;;2.78;;
6626;SDS011;3349;49.830;8.748;2023-08-06T03:30:23;3.58;;;2.70;;
6626;SDS011;3349;49.830;8.748;2023-08-06T03:32:50;5.03;;;2.70;;
6626;SDS011;3349;49.830;8.748;2023-08-06T03:35:16;5.43;;;2.83;;
6626;SDS011;3349;49.830;8.748;2023-08-06T03:37:44;3.40;;;2.85;;
6626;SDS011;3349;49.830;8.748;2023-08-06T03:40:11;3.28;;;2.63;;
6626;SDS011;3349;49.830;8.748;2023-08-06T03:42:37;6.20;;;2.72;;
6626;SDS011;3349;49.830;8.748;2023-08-06T03:45:05;5.35;;;2.80;;
6626;SDS011;3349;49.830;8.748;2023-08-06T03:47:32;3.30;;;2.75;;
6626;SDS011;3349;49.830;8.748;2023-08-06T03:49:59;6.18;;;2.67;;
6626;SDS011;3349;49.830;8.748;2023-08-06T03:52:25;6.15;;;2.65;;
6626;SDS011;3349;49.830;8.748;2023-08-06T03:54:53;3.42;;;2.70;;
6626;SDS011;3349;49.830;8.748;2023-08-06T03:57:19;4.68;;;2.78;;
6626;SDS011;3349;49.830;8.748;2023-08-06T03:59:46;6.28;;;2.60;;
6626;SDS011;3349;49.830;8.748;2023-08-06T04:02:12;3.90;;;2.70;;
6626;SDS011;3349;49.830;8.748;2023-08-06T04:04:39;3.13;;;2.42;;
6626;SDS011;3349;49.830;8.748;2023-08-06T04:07:06;3.83;;;2.95;;
6626;SDS011;3349;49.830;8.748;2023-08-06T04:09:32;5.18;;;2.60;;
6626;SDS011;3349;49.830;8.748;2023-08-06T04:12:00;4.47;;;3.05;;
6626;SDS011;3349;49.830;8.748;2023-08-06T04:14:27;4.70;;;2.97;;
6626;SDS011;3349;49.830;8.748;2023-08-06T04:16:54;4.53;;;2.80;;
6626;SDS011;3349;49.830;8.748;2023-08-06T04:19:21;4.40;;;2.70;;
6626;SDS011;3349;49.830;8.748;2023-08-06T04:21:47;4.63;;;2.70;;
6626;SDS011;3349;49.830;8.748;2023-08-06T04:24:14;3.50;;;2.65;;
6626;SDS011;3349;49.830;8.748;2023-08-06T04:26:41;4.18;;;3.00;;
6626;SDS011;3349;49.830;8.748;2023-08-06T04:29:09;3.90;;;2.50;;
6626;SDS011;3349;49.830;8.748;2023-08-06T04:31:35;5.07;;;2.63;;
6626;SDS011;3349;49.830;8.748;2023-08-06T04:34:02;6.45;;;2.67;;
6626;SDS011;3349;49.830;8.748;2023-08-06T04:36:29;2.92;;;2.40;;
6626;SDS011;3349;49.830;8.748;2023-08-06T04:38:55;4.45;;;2.75;;
6626;SDS011;3349;49.830;8.748;2023-08-06T04:41:22;3.35;;;2.30;;
6626;SDS011;3349;49.830;8.748;2023-08-06T04:43:49;4.68;;;2.45;;
6626;SDS011;3349;49.830;8.748;2023-08-06T04:46:17;4.53;;;2.45;;
6626;SDS011;3349;49.830;8.748;2023-08-06T04:48:43;3.92;;;2.30;;
6626;SDS011;3349;49.830;8.748;2023-08-06T04:51:10;4.80;;;2.40;;
6626;SDS011;3349;49.830;8.748;2023-08-06T04:53:36;5.60;;;2.63;;
6626;SDS011;3349;49.830;8.748;2023-08-06T04:56:03;3.92;;;2.35;;
6626;SDS011;3349;49.830;8.748;2023-08-06T04:58:30;3.78;;;2.10;;
6626;SDS011;3349;49.830;8.748;2023-08-06T05:00:57;4.20;;;2.30;;
6626;SDS011;3349;49.830;8.748;2023-08-06T05:03:25;3.67;;;2.00;;
6626;SDS011;3349;49.830;8.748;2023-08-06T05:05:51;2.25;;;1.90;;
6626;SDS011;3349;49.830;8.748;2023-08-06T05:08:18;3.38;;;1.60;;
6626;SDS011;3349;49.830;8.748;2023-08-06T05:10:45;4.20;;;1.80;;
6626;SDS011;3349;49.830;8.748;2023-08-06T05:13:12;2.72;;;1.73;;
6626;SDS011;3349;49.830;8.748;2023-08-06T05:15:38;3.13;;;1.70;;
6626;SDS011;3349;49.830;8.748;2023-08-06T05:18:07;4.85;;;2.05;;
6626;SDS011;3349;49.830;8.748;2023-08-06T05:20:36;4.38;;;1.77;;
6626;SDS011;3349;49.830;8.748;2023-08-06T05:23:03;2.40;;;1.67;;
6626;SDS011;3349;49.830;8.748;2023-08-06T05:25:30;3.42;;;2.05;;
6626;SDS011;3349;49.830;8.748;2023-08-06T05:27:57;4.57;;;2.20;;
6626;SDS011;3349;49.830;8.748;2023-08-06T05:30:23;2.92;;;2.08;;
6626;SDS011;3349;49.830;8.748;2023-08-06T05:32:50;3.55;;;2.08;;
6626;SDS011;3349;49.830;8.748;2023-08-06T05:35:17;3.25;;;2.08;;
6626;SDS011;3349;49.830;8.748;2023-08-06T05:37:45;2.90;;;1.90;;
6626;SDS011;3349;49.830;8.748;2023-08-06T05:40:12;2.42;;;1.98;;
6626;SDS011;3349;49.830;8.748;2023-08-06T05:42:39;3.25;;;1.70;;
6626;SDS011;3349;49.830;8.748;2023-08-06T05:45:06;4.05;;;1.80;;
6626;SDS011;3349;49.830;8.748;2023-08-06T05:47:33;3.40;;;1.70;;
6626;SDS011;3349;49.830;8.748;2023-08-06T05:50:00;2.83;;;1.50;;
6626;SDS011;3349;49.830;8.748;2023-08-06T05:52:26;2.35;;;1.55;;
6626;SDS011;3349;49.830;8.748;2023-08-06T05:54:54;1.45;;;1.35;;
6626;SDS011;3349;49.830;8.748;2023-08-06T05:57:21;1.70;;;1.30;;
6626;SDS011;3349;49.830;8.748;2023-08-06T05:59:48;1.67;;;1.50;;
6626;SDS011;3349;49.830;8.748;2023-08-06T06:02:14;2.60;;;1.40;;
6626;SDS011;3349;49.830;8.748;2023-08-06T06:04:43;1.70;;;1.58;;
6626;SDS011;3349;49.830;8.748;2023-08-06T06:07:10;2.70;;;1.50;;
6626;SDS011;3349;49.830;8.748;2023-08-06T06:09:37;1.88;;;1.65;;
6626;SDS011;3349;49.830;8.748;2023-08-06T06:12:06;5.75;;;1.60;;
6626;SDS011;3349;49.830;8.748;2023-08-06T06:14:33;3.03;;;1.40;;
6626;SDS011;3349;49.830;8.748;2023-08-06T06:17:00;2.58;;;1.33;;
6626;SDS011;3349;49.830;8.748;2023-08-06T06:19:26;2.13;;;1.50;;
6626;SDS011;3349;49.830;8.748;2023-08-06T06:21:53;3.25;;;1.60;;
6626;SDS011;3349;49.830;8.748;2023-08-06T06:24:22;3.05;;;1.30;;
6626;SDS011;3349;49.830;8.748;2023-08-06T06:26:49;3.40;;;1.40;;
6626;SDS011;3349;49.830;8.748;2023-08-06T06:29:17;2.17;;;1.63;;
6626;SDS011;3349;49.830;8.748;2023-08-06T06:31:44;4.45;;;1.40;;
6626;SDS011;3349;49.830;8.748;2023-08-06T06:34:10;2.17;;;1.40;;
6626;SDS011;3349;49.830;8.748;2023-08-06T06:36:37;2.08;;;1.38;;
6626;SDS011;3349;49.830;8.748;2023-08-06T06:39:04;2.17;;;1.40;;
6626;SDS011;3349;49.830;8.748;2023-08-06T06:41:31;3.38;;;1.33;;
6626;SDS011;3349;49.830;8.748;2023-08-06T06:43:58;2.67;;;1.63;;
6626;SDS011;3349;49.830;8.748;2023-08-06T06:46:26;1.90;;;1.65;;
6626;SDS011;3349;49.830;8.748;2023-08-06T06:48:52;1.83;;;1.50;;
6626;SDS011;3349;49.830;8.748;2023-08-06T06:51:19;4.35;;;1.33;;
6626;SDS011;3349;49.830;8.748;2023-08-06T06:53:46;2.88;;;1.17;;
6626;SDS011;3349;49.830;8.748;2023-08-06T06:56:12;2.00;;;1.55;;
6626;SDS011;3349;49.830;8.748;2023-08-06T06:58:39;2.65;;;1.60;;
6626;SDS011;3349;49.830;8.748;2023-08-06T07:01:06;1.63;;;1.50;;
6626;SDS011;3349;49.830;8.748;2023-08-06T07:03:36;2.00;;;1.70;;
6626;SDS011;3349;49.830;8.748;2023-08-06T07:06:03;1.60;;;1.40;;
6626;SDS011;3349;49.830;8.748;2023-08-06T07:08:30;1.40;;;1.30;;
6626;SDS011;3349;49.830;8.748;2023-08-06T07:11:00;3.90;;;1.70;;
6626;SDS011;3349;49.830;8.748;2023-08-06T07:13:28;2.13;;;1.83;;
6626;SDS011;3349;49.830;8.748;2023-08-06T07:15:55;2.15;;;1.77;;
6626;SDS011;3349;49.830;8.748;2023-08-06T07:18:22;2.30;;;1.70;;
6626;SDS011;3349;49.830;8.748;2023-08-06T07:20:51;1.83;;;1.60;;
6626;SDS011;3349;49.830;8.748;2023-08-06T07:23:19;2.72;;;1.50;;
6626;SDS011;3349;49.830;8.748;2023-08-06T07:25:47;1.75;;;1.60;;
6626;SDS011;3349;49.830;8.748;2023-08-06T07:28:13;1.65;;;1.35;;
6626;SDS011;3349;49.830;8.748;2023-08-06T07:30:41;1.70;;;1.60;;
6626;SDS011;3349;49.830;8.748;2023-08-06T07:33:09;3.17;;;1.58;;
6626;SDS011;3349;49.830;8.748;2023-08-06T07:35:36;2.53;;;1.63;;
6626;SDS011;3349;49.830;8.748;2023-08-06T07:38:05;1.95;;;1.40;;
6626;SDS011;3349;49.830;8.748;2023-08-06T07:40:32;2.95;;;1.50;;
6626;SDS011;3349;49.830;8.748;2023-08-06T07:42:58;3.28;;;1.50;;
6626;SDS011;3349;49.830;8.748;2023-08-06T07:45:25;3.80;;;1.48;;
6626;SDS011;3349;49.830;8.748;2023-08-06T07:47:53;1.42;;;1.15;;
6626;SDS011;3349;49.830;8.748;2023-08-06T07:50:19;1.88;;;1.20;;
6626;SDS011;3349;49.830;8.748;2023-08-06T07:52:46;1.77;;;1.15;;
6626;SDS011;3349;49.830;8.748;2023-08-06T07:55:14;1.40;;;1.05;;
6626;SDS011;3349;49.830;8.748;2023-08-06T07:57:41;1.15;;;1.05;;
6626;SDS011;3349;49.830;8.748;2023-08-06T08:00:08;1.83;;;1.20;;
6626;SDS011;3349;49.830;8.748;2023-08-06T08:02:35;1.42;;;1.33;;
6626;SDS011;3349;49.830;8.748;2023-08-06T08:05:02;1.83;;;1.08;;
6626;SDS011;3349;49.830;8.748;2023-08-06T08:07:29;1.27;;;1.00;;
6626;SDS011;3349;49.830;8.748;2023-08-06T08:09:56;2.10;;;1.13;;
6626;SDS011;3349;49.830;8.748;2023-08-06T08:12:24;1.75;;;1.27;;
6626;SDS011;3349;49.830;8.748;2023-08-06T08:14:50;1.20;;;1.10;;
6626;SDS011;3349;49.830;8.748;2023-08-06T08:17:17;1.20;;;1.00;;
6626;SDS011;3349;49.830;8.748;2023-08-06T08:19:44;1.50;;;1.10;;
6626;SDS011;3349;49.830;8.748;2023-08-06T08:22:11;2.13;;;1.40;;
6626;SDS011;3349;49.830;8.748;2023-08-06T08:24:37;1.25;;;1.15;;
6626;SDS011;3349;49.830;8.748;2023-08-06T08:27:04;1.30;;;1.20;;
6626;SDS011;3349;49.830;8.748;2023-08-06T08:29:32;2.20;;;1.27;;
6626;SDS011;3349;49.830;8.748;2023-08-06T08:31:59;1.20;;;1.10;;
6626;SDS011;3349;49.830;8.748;2023-08-06T08:34:26;1.60;;;1.30;;
6626;SDS011;3349;49.830;8.748;2023-08-06T08:36:52;2.38;;;1.20;;
6626;SDS011;3349;49.830;8.748;2023-08-06T08:39:19;1.70;;;1.20;;
6626;SDS011;3349;49.830;8.748;2023-08-06T08:41:46;1.20;;;1.10;;
6626;SDS011;3349;49.830;8.748;2023-08-06T08:44:12;2.85;;;1.20;;
6626;SDS011;3349;49.830;8.748;2023-08-06T08:46:43;1.67;;;1.35;;
6626;SDS011;3349;49.830;8.748;2023-08-06T08:49:11;1.50;;;1.23;;
6626;SDS011;3349;49.830;8.748;2023-08-06T08:51:38;1.20;;;1.10;;
6626;SDS011;3349;49.830;8.748;2023-08-06T08:54:04;1.30;;;1.17;;
6626;SDS011;3349;49.830;8.748;2023-08-06T08:56:34;1.60;;;1.10;;
6626;SDS011;3349;49.830;8.748;2023-08-06T08:59:01;1.23;;;1.00;;
6626;SDS011;3349;49.830;8.748;2023-08-06T09:01:28;1.58;;;1.25;;
6626;SDS011;3349;49.830;8.748;2023-08-06T09:03:56;1.95;;;1.10;;
6626;SDS011;3349;49.830;8.748;2023-08-06T09:06:23;1.52;;;1.33;;
6626;SDS011;3349;49.830;8.748;2023-08-06T09:08:56;2.03;;;1.63;;
6626;SDS011;3349;49.830;8.748;2023-08-06T09:11:27;1.50;;;1.40;;
6626;SDS011;3349;49.830;8.748;2023-08-06T09:13:56;1.58;;;1.20;;
6626;SDS011;3349;49.830;8.748;2023-08-06T09:16:23;1.20;;;1.10;;
6626;SDS011;3349;49.830;8.748;2023-08-06T09:18:51;0.93;;;0.90;;
6626;SDS011;3349;49.830;8.748;2023-08-06T09:21:19;1.88;;;0.93;;
6626;SDS011;3349;49.830;8.748;2023-08-06T09:23:45;1.33;;;0.90;;
6626;SDS011;3349;49.830;8.748;2023-08-06T09:26:12;1.10;;;0.98;;
6626;SDS011;3349;49.830;8.748;2023-08-06T09:28:39;1.27;;;1.10;;
6626;SDS011;3349;49.830;8.748;2023-08-06T09:31:08;1.05;;;0.95;;
6626;SDS011;3349;49.830;8.748;2023-08-06T09:33:36;0.90;;;0.90;;
6626;SDS011;3349;49.830;8.748;2023-08-06T09:36:09;1.55;;;0.90;;
6626;SDS011;3349;49.830;8.748;2023-08-06T09:38:41;2.47;;;0.95;;
6626;SDS011;3349;49.830;8.748;2023-08-06T09:41:07;1.02;;;0.80;;
6626;SDS011;3349;49.830;8.748;2023-08-06T09:43:41;2.17;;;1.00;;
6626;SDS011;3349;49.830;8.748;2023-08-06T09:46:11;1.15;;;1.05;;
6626;SDS011;3349;49.830;8.748;2023-08-06T09:48:44;1.10;;;1.00;;
6626;SDS011;3349;49.830;8.748;2023-08-06T09:51:11;1.00;;;0.90;;
6626;SDS011;3349;49.830;8.748;2023-08-06T09:53:41;1.48;;;1.00;;
6626;SDS011;3349;49.830;8.748;2023-08-06T09:56:09;1.48;;;1.10;;
6626;SDS011;3349;49.830;8.748;2023-08-06T09:58:36;1.35;;;1.10;;
6626;SDS011;3349;49.830;8.748;2023-08-06T10:01:04;0.82;;;0.82;;
6626;SDS011;3349;49.830;8.748;2023-08-06T10:03:31;1.73;;;0.80;;
6626;SDS011;3349;49.830;8.748;2023-08-06T10:05:59;1.15;;;0.70;;
6626;SDS011;3349;49.830;8.748;2023-08-06T10:08:31;1.20;;;0.90;;
6626;SDS011;3349;49.830;8.748;2023-08-06T10:10:59;0.80;;;0.70;;
6626;SDS011;3349;49.830;8.748;2023-08-06T10:13:27;1.08;;;0.98;;
6626;SDS011;3349;49.830;8.748;2023-08-06T10:15:54;4.10;;;1.00;;
6626;SDS011;3349;49.830;8.748;2023-08-06T10:18:21;0.70;;;0.70;;
6626;SDS011;3349;49.830;8.748;2023-08-06T10:20:49;1.20;;;1.10;;
6626;SDS011;3349;49.830;8.748;2023-08-06T10:23:15;1.55;;;1.02;;
6626;SDS011;3349;49.830;8.748;2023-08-06T10:25:45;2.28;;;0.95;;
6626;SDS011;3349;49.830;8.748;2023-08-06T10:28:22;1.20;;;0.80;;
6626;SDS011;3349;49.830;8.748;2023-08-06T10:30:59;1.55;;;0.85;;
6626;SDS011;3349;49.830;8.748;2023-08-06T10:33:26;1.80;;;1.00;;
6626;SDS011;3349;49.830;8.748;2023-08-06T10:36:07;1.58;;;1.00;;
6626;SDS011;3349;49.830;8.748;2023-08-06T10:38:35;1.38;;;1.00;;
6626;SDS011;3349;49.830;8.748;2023-08-06T10:41:09;1.20;;;0.90;;
6626;SDS011;3349;49.830;8.748;2023-08-06T10:43:43;1.88;;;0.82;;
6626;SDS011;3349;49.830;8.748;2023-08-06T10:46:10;1.95;;;0.70;;
6626;SDS011;3349;49.830;8.748;2023-08-06T10:48:39;0.73;;;0.73;;
6626;SDS011;3349;49.830;8.748;2023-08-06T10:51:07;1.20;;;0.90;;
6626;SDS011;3349;49.830;8.748;2023-08-06T10:53:34;1.27;;;0.70;;
6626;SDS011;3349;49.830;8.748;2023-08-06T10:56:01;0.82;;;0.80;;
6626;SDS011;3349;49.830;8.748;2023-08-06T10:58:30;0.70;;;0.70;;
6626;SDS011;3349;49.830;8.748;2023-08-06T11:00:59;1.70;;;1.13;;
6626;SDS011;3349;49.830;8.748;2023-08-06T11:03:26;0.63;;;0.60;;
6626;SDS011;3349;49.830;8.748;2023-08-06T11:05:53;1.92;;;0.70;;
6626;SDS011;3349;49.830;8.748;2023-08-06T11:08:24;0.70;;;0.70;;
6626;SDS011;3349;49.830;8.748;2023-08-06T11:10:51;0.75;;;0.70;;
6626;SDS011;3349;49.830;8.748;2023-08-06T11:13:18;0.88;;;0.80;;
6626;SDS011;3349;49.830;8.748;2023-08-06T11:15:45;1.40;;;0.88;;
6626;SDS011;3349;49.830;8.748;2023-08-06T11:18:13;0.70;;;0.68;;
6626;SDS011;3349;49.830;8.748;2023-08-06T11:20:39;0.70;;;0.70;;
6626;SDS011;3349;49.830;8.748;2023-08-06T11:23:06;1.38;;;0.80;;
6626;SDS011;3349;49.830;8.748;2023-08-06T11:25:36;1.90;;;0.80;;
6626;SDS011;3349;49.830;8.748;2023-08-06T11:28:03;1.00;;;0.70;;
6626;SDS011;3349;49.830;8.748;2023-08-06T11:30:30;1.30;;;0.75;;
6626;SDS011;3349;49.830;8.748;2023-08-06T11:32:56;0.70;;;0.70;;
6626;SDS011;3349;49.830;8.748;2023-08-06T11:35:25;0.70;;;0.50;;
6626;SDS011;3349;49.830;8.748;2023-08-06T11:37:51;0.70;;;0.70;;
6626;SDS011;3349;49.830;8.748;2023-08-06T11:40:18;0.60;;;0.60;;
6626;SDS011;3349;49.830;8.748;2023-08-06T11:42:46;0.60;;;0.50;;
6626;SDS011;3349;49.830;8.748;2023-08-06T11:45:13;0.70;;;0.70;;
6626;SDS011;3349;49.830;8.748;2023-08-06T11:47:40;0.70;;;0.70;;
6626;SDS011;3349;49.830;8.748;2023-08-06T11:50:07;0.63;;;0.63;;
6626;SDS011;3349;49.830;8.748;2023-08-06T11:52:38;0.70;;;0.63;;
6626;SDS011;3349;49.830;8.748;2023-08-06T11:55:07;1.80;;;0.70;;
6626;SDS011;3349;49.830;8.748;2023-08-06T11:57:36;0.77;;;0.70;;
6626;SDS011;3349;49.830;8.748;2023-08-06T12:00:05;1.30;;;0.75;;
6626;SDS011;3349;49.830;8.748;2023-08-06T12:02:33;1.15;;;0.80;;
6626;SDS011;3349;49.830;8.748;2023-08-06T12:05:03;1.70;;;0.90;;
6626;SDS011;3349;49.830;8.748;2023-08-06T12:07:36;2.67;;;0.80;;
6626;SDS011;3349;49.830;8.748;2023-08-06T12:10:05;0.80;;;0.65;;
6626;SDS011;3349;49.830;8.748;2023-08-06T12:12:33;0.65;;;0.65;;
6626;SDS011;3349;49.830;8.748;2023-08-06T12:15:00;0.75;;;0.75;;
6626;SDS011;3349;49.830;8.748;2023-08-06T12:17:27;0.90;;;0.80;;
6626;SDS011;3349;49.830;8.748;2023-08-06T12:19:54;0.65;;;0.65;;
6626;SDS011;3349;49.830;8.748;2023-08-06T12:22:20;0.98;;;0.90;;
6626;SDS011;3349;49.830;8.748;2023-08-06T12:24:48;0.95;;;0.90;;
6626;SDS011;3349;49.830;8.748;2023-08-06T12:27:15;2.30;;;1.15;;
6626;SDS011;3349;49.830;8.748;2023-08-06T12:29:42;1.40;;;0.95;;
6626;SDS011;3349;49.830;8.748;2023-08-06T12:32:10;1.92;;;0.90;;
6626;SDS011;3349;49.830;8.748;2023-08-06T12:34:37;1.20;;;1.10;;
6626;SDS011;3349;49.830;8.748;2023-08-06T12:37:05;1.95;;;1.10;;
6626;SDS011;3349;49.830;8.748;2023-08-06T12:39:32;1.45;;;1.00;;
6626;SDS011;3349;49.830;8.748;2023-08-06T12:42:00;1.02;;;0.90;;
6626;SDS011;3349;49.830;8.748;2023-08-06T12:44:27;1.30;;;1.20;;
6626;SDS011;3349;49.830;8.748;2023-08-06T12:46:54;2.38;;;1.02;;
6626;SDS011;3349;49.830;8.748;2023-08-06T12:49:21;1.20;;;1.10;;
6626;SDS011;3349;49.830;8.748;2023-08-06T12:51:48;1.30;;;1.20;;
6626;SDS011;3349;49.830;8.748;2023-08-06T12:54:16;2.00;;;1.20;;
6626;SDS011;3349;49.830;8.748;2023-08-06T12:56:43;3.83;;;1.30;;
6626;SDS011;3349;49.830;8.748;2023-08-06T12:59:11;2.00;;;1.10;;
6626;SDS011;3349;49.830;8.748;2023-08-06T13:01:39;3.13;;;1.20;;
6626;SDS011;3349;49.830;8.748;2023-08-06T13:04:07;1.38;;;1.15;;
6626;SDS011;3349;49.830;8.748;2023-08-06T13:06:33;3.78;;;1.17;;
6626;SDS011;3349;49.830;8.748;2023-08-06T13:09:01;1.42;;;1.20;;
6626;SDS011;3349;49.830;8.748;2023-08-06T13:11:28;1.15;;;1.00;;
6626;SDS011;3349;49.830;8.748;2023-08-06T13:13:56;2.95;;;1.10;;
6626;SDS011;3349;49.830;8.748;2023-08-06T13:16:26;1.20;;;1.10;;
6626;SDS011;3349;49.830;8.748;2023-08-06T13:18:54;1.98;;;1.23;;
6626;SDS011;3349;49.830;8.748;2023-08-06T13:21:20;1.30;;;1.20;;
6626;SDS011;3349;49.830;8.748;2023-08-06T13:23:47;2.90;;;1.17;;
6626;SDS011;3349;49.830;8.748;2023-08-06T13:26:14;2.25;;;1.20;;
6626;SDS011;3349;49.830;8.748;2023-08-06T13:28:41;1.33;;;1.20;;
6626;SDS011;3349;49.830;8.748;2023-08-06T13:31:09;2.95;;;1.30;;
6626;SDS011;3349;49.830;8.748;2023-08-06T13:33:37;1.20;;;0.90;;
6626;SDS011;3349;49.830;8.748;2023-08-06T13:36:04;2.03;;;1.13;;
6626;SDS011;3349;49.830;8.748;2023-08-06T13:38:30;5.28;;;1.30;;
6626;SDS011;3349;49.830;8.748;2023-08-06T13:40:57;1.77;;;1.10;;
6626;SDS011;3349;49.830;8.748;2023-08-06T13:43:24;2.05;;;1.30;;
6626;SDS011;3349;49.830;8.748;2023-08-06T13:45:50;1.42;;;1.33;;
6626;SDS011;3349;49.830;8.748;2023-08-06T13:48:17;2.72;;;1.20;;
6626;SDS011;3349;49.830;8.748;2023-08-06T13:50:45;4.20;;;1.42;;
6626;SDS011;3349;49.830;8.748;2023-08-06T13:53:12;1.15;;;1.05;;
6626;SDS011;3349;49.830;8.748;2023-08-06T13:55:38;1.75;;;1.23;;
6626;SDS011;3349;49.830;8.748;2023-08-06T13:58:05;2.45;;;1.10;;
6626;SDS011;3349;49.830;8.748;2023-08-06T14:00:32;2.47;;;0.85;;
6626;SDS011;3349;49.830;8.748;2023-08-06T14:02:58;1.63;;;0.80;;
6626;SDS011;3349;49.830;8.748;2023-08-06T14:05:25;2.60;;;0.80;;
6626;SDS011;3349;49.830;8.748;2023-08-06T14:07:53;1.77;;;1.00;;
6626;SDS011;3349;49.830;8.748;2023-08-06T14:10:20;1.20;;;0.90;;
6626;SDS011;3349;49.830;8.748;2023-08-06T14:12:46;1.00;;;0.80;;
6626;SDS011;3349;49.830;8.748;2023-08-06T14:15:14;1.50;;;0.80;;
6626;SDS011;3349;49.830;8.748;2023-08-06T14:17:41;1.25;;;0.80;;
6626;SDS011;3349;49.830;8.748;2023-08-06T14:20:07;1.15;;;0.80;;
6626;SDS011;3349;49.830;8.748;2023-08-06T14:22:36;1.00;;;0.80;;
6626;SDS011;3349;49.830;8.748;2023-08-06T14:25:05;1.55;;;1.20;;
6626;SDS011;3349;49.830;8.748;2023-08-06T14:27:32;3.30;;;1.10;;
6626;SDS011;3349;49.830;8.748;2023-08-06T14:29:59;1.55;;;1.00;;
6626;SDS011;3349;49.830;8.748;2023-08-06T14:32:28;1.33;;;0.73;;
6626;SDS011;3349;49.830;8.748;2023-08-06T14:34:54;1.38;;;1.00;;
6626;SDS011;3349;49.830;8.748;2023-08-06T14:37:21;1.25;;;0.98;;
6626;SDS011;3349;49.830;8.748;2023-08-06T14:39:48;1.10;;;1.00;;
6626;SDS011;3349;49.830;8.748;2023-08-06T14:42:16;1.15;;;0.82;;
6626;SDS011;3349;49.830;8.748;2023-08-06T14:44:43;2.17;;;0.80;;
6626;SDS011;3349;49.830;8.748;2023-08-06T14:47:10;1.25;;;1.08;;
6626;SDS011;3349;49.830;8.748;2023-08-06T14:49:37;4.13;;;1.10;;
6626;SDS011;3349;49.830;8.748;2023-08-06T14:52:04;2.15;;;1.15;;
6626;SDS011;3349;49.830;8.748;2023-08-06T14:54:31;1.00;;;0.90;;
6626;SDS011;3349;49.830;8.748;2023-08-06T14:56:58;3.08;;;0.80;;
6626;SDS011;3349;49.830;8.748;2023-08-06T14:59:26;1.25;;;0.93;;
6626;SDS011;3349;49.830;8.748;2023-08-06T15:01:53;2.25;;;0.80;;
6626;SDS011;3349;49.830;8.748;2023-08-06T15:04:19;0.88;;;0.80;;
6626;SDS011;3349;49.830;8.748;2023-08-06T15:06:48;1.15;;;0.90;;
6626;SDS011;3349;49.830;8.748;2023-08-06T15:09:15;1.48;;;1.00;;
6626;SDS011;3349;49.830;8.748;2023-08-06T15:11:41;1.85;;;0.90;;
6626;SDS011;3349;49.830;8.748;2023-08-06T15:14:08;1.90;;;0.88;;
6626;SDS011;3349;49.830;8.748;2023-08-06T15:16:36;2.25;;;1.35;;